createdAt,value
2024-03-13T00:02:51.015Z,7.32
2024-03-13T00:06:52.660Z,7.43
2024-03-13T00:10:54.419Z,8.48
2024-03-13T00:14:57.538Z,7.05
2024-03-13T00:18:59.508Z,6.80
2024-03-13T00:23:02.732Z,7.25
2024-03-13T00:27:04.779Z,6.60
2024-03-13T00:31:09.849Z,6.22
2024-03-13T00:35:14.993Z,6.38
2024-03-13T00:39:17.129Z,6.68
2024-03-13T00:43:19.443Z,6.50
2024-03-13T00:47:23.933Z,6.35
2024-03-13T00:51:25.533Z,6.25
2024-03-13T00:55:28.591Z,6.32
2024-03-13T00:59:31.237Z,6.20
2024-03-13T01:03:32.865Z,6.10
2024-03-13T01:07:36.023Z,6.55
2024-03-13T01:11:37.887Z,5.85
2024-03-13T01:15:39.537Z,5.50
2024-03-13T01:19:41.056Z,6.40
2024-03-13T01:23:42.915Z,5.78
2024-03-13T01:27:44.583Z,4.80
2024-03-13T01:31:46.127Z,6.00
2024-03-13T01:35:48.020Z,6.22
2024-03-13T01:39:50.240Z,5.72
2024-03-13T01:44:16.807Z,6.03
2024-03-13T01:48:37.247Z,6.70
2024-03-13T01:52:57.384Z,5.90
2024-03-13T01:57:13.793Z,5.18
2024-03-13T02:01:33.736Z,5.50
2024-03-13T02:05:39.021Z,5.90
2024-03-13T02:09:40.583Z,6.28
2024-03-13T02:13:42.146Z,5.18
2024-03-13T02:17:43.735Z,5.47
2024-03-13T02:21:48.433Z,5.68
2024-03-13T02:25:54.021Z,5.82
2024-03-13T02:29:55.574Z,5.43
2024-03-13T02:33:57.321Z,5.38
2024-03-13T02:37:58.774Z,5.47
2024-03-13T02:42:00.257Z,5.40
2024-03-13T02:46:03.299Z,5.18
2024-03-13T02:50:04.947Z,5.15
2024-03-13T02:54:07.008Z,6.20
2024-03-13T02:58:08.593Z,5.50
2024-03-13T03:02:10.737Z,6.00
2024-03-13T03:06:12.389Z,6.68
2024-03-13T03:10:14.211Z,5.65
2024-03-13T03:14:15.718Z,6.32
2024-03-13T03:18:19.178Z,5.53
2024-03-13T03:22:21.020Z,5.50
2024-03-13T03:26:22.593Z,6.47
2024-03-13T03:30:26.914Z,5.43
2024-03-13T03:34:28.431Z,6.82
2024-03-13T03:38:30.175Z,5.57
2024-03-13T03:42:31.636Z,5.25
2024-03-13T03:46:33.284Z,5.00
2024-03-13T03:50:34.853Z,6.22
2024-03-13T03:54:36.420Z,5.35
2024-03-13T03:58:37.945Z,5.60
2024-03-13T04:02:43.110Z,6.25
2024-03-13T04:06:44.998Z,5.43
2024-03-13T04:10:46.537Z,4.90
2024-03-13T04:14:48.068Z,5.30
2024-03-13T04:18:49.612Z,5.57
2024-03-13T04:22:51.681Z,5.45
2024-03-13T04:26:53.219Z,5.30
2024-03-13T04:30:55.120Z,6.13
2024-03-13T04:34:59.099Z,5.30
2024-03-13T04:39:01.100Z,5.43
2024-03-13T04:43:02.712Z,5.22
2024-03-13T04:47:04.317Z,4.70
2024-03-13T04:51:06.610Z,5.53
2024-03-13T04:55:08.344Z,5.18
2024-03-13T04:59:09.870Z,5.57
2024-03-13T05:03:11.795Z,5.80
2024-03-13T05:07:13.924Z,6.78
2024-03-13T05:11:15.883Z,6.60
2024-03-13T05:15:18.258Z,6.18
2024-03-13T05:19:20.506Z,6.15
2024-03-13T05:23:22.197Z,6.07
2024-03-13T05:27:24.034Z,6.57
2024-03-13T05:31:25.686Z,6.07
2024-03-13T05:35:27.442Z,7.03
2024-03-13T05:39:28.981Z,6.05
2024-03-13T05:43:30.480Z,6.22
2024-03-13T05:47:33.107Z,6.53
2024-03-13T05:51:36.422Z,6.35
2024-03-13T05:55:38.088Z,5.88
2024-03-13T05:59:39.581Z,6.28
2024-03-13T06:03:41.462Z,5.65
2024-03-13T06:07:43.082Z,5.68
2024-03-13T06:11:44.766Z,5.82
2024-03-13T06:15:46.435Z,6.32
2024-03-13T06:19:48.063Z,5.68
2024-03-13T06:23:49.787Z,5.18
2024-03-13T06:27:57.898Z,5.47
2024-03-13T06:32:01.980Z,5.57
2024-03-13T06:36:03.866Z,5.72
2024-03-13T06:40:05.881Z,5.38
2024-03-13T06:44:07.502Z,6.13
2024-03-13T06:48:09.374Z,5.63
2024-03-13T06:52:13.860Z,6.70
2024-03-13T06:56:16.158Z,6.38
2024-03-13T07:00:17.985Z,6.28
2024-03-13T07:04:19.977Z,5.85
2024-03-13T07:08:21.569Z,5.38
2024-03-13T07:12:24.427Z,5.03
2024-03-13T07:16:25.933Z,6.43
2024-03-13T07:20:27.611Z,6.05
2024-03-13T07:24:29.181Z,6.25
2024-03-13T07:28:33.842Z,6.35
2024-03-13T07:32:35.970Z,6.03
2024-03-13T07:36:38.941Z,5.38
2024-03-13T07:40:43.527Z,6.32
2024-03-13T07:44:46.757Z,5.90
2024-03-13T07:48:48.240Z,6.55
2024-03-13T07:52:50.353Z,5.85
2024-03-13T07:56:53.428Z,5.70
2024-03-13T08:00:54.927Z,5.30
2024-03-13T08:04:56.461Z,6.35
2024-03-13T09:09:39.436Z,3.30
2024-03-13T09:13:41.490Z,2.33
2024-03-13T09:17:43.427Z,2.58
2024-03-13T09:21:49.024Z,2.95
2024-03-13T09:25:50.544Z,2.97
2024-03-13T09:29:55.438Z,2.33
2024-03-13T09:33:57.119Z,2.25
2024-03-13T09:37:58.649Z,1.67
2024-03-13T09:42:00.586Z,1.92
2024-03-13T09:46:03.557Z,1.63
2024-03-13T09:50:08.123Z,1.63
2024-03-13T09:54:13.000Z,1.55
2024-03-13T09:58:16.520Z,1.73
2024-03-13T10:02:22.565Z,1.10
2024-03-13T10:06:27.133Z,1.73
2024-03-13T10:10:30.885Z,1.27
2024-03-13T10:14:33.153Z,1.05
2024-03-13T10:18:40.680Z,0.95
2024-03-13T10:22:42.196Z,1.00
2024-03-13T10:26:47.623Z,0.95
2024-03-13T10:30:49.198Z,0.80
2024-03-13T10:34:51.133Z,0.70
2024-03-13T10:38:54.408Z,0.80
2024-03-13T10:42:56.081Z,0.68
2024-03-13T10:47:00.282Z,0.80
2024-03-13T10:51:04.670Z,0.50
2024-03-13T10:55:09.632Z,0.70
2024-03-13T10:59:12.939Z,2.90
2024-03-13T11:03:14.593Z,0.80
2024-03-13T11:07:19.996Z,0.73
2024-03-13T11:11:23.631Z,0.70
2024-03-13T11:15:30.413Z,0.60
2024-03-13T11:19:34.505Z,0.85
2024-03-13T11:23:42.224Z,1.05
2024-03-13T11:27:49.819Z,0.77
2024-03-13T11:31:53.715Z,0.70
2024-03-13T11:35:56.490Z,0.60
2024-03-13T11:39:58.541Z,0.95
2024-03-13T11:44:00.154Z,0.65
2024-03-13T11:48:02.246Z,0.80
2024-03-13T11:52:04.263Z,1.00
2024-03-13T11:56:06.339Z,0.77
2024-03-13T12:00:22.018Z,1.05
2024-03-13T12:04:23.629Z,1.40
2024-03-13T12:08:25.143Z,0.80
2024-03-13T12:12:27.922Z,1.33
2024-03-13T12:16:29.467Z,1.00
2024-03-13T12:20:36.522Z,1.50
2024-03-13T12:24:38.479Z,0.77
2024-03-13T12:28:40.384Z,0.98
2024-03-13T12:32:41.954Z,1.15
2024-03-13T12:36:48.172Z,1.10
2024-03-13T12:40:49.628Z,1.60
2024-03-13T12:44:51.145Z,1.30
2024-03-13T12:48:52.735Z,1.75
2024-03-13T12:52:54.609Z,2.28
2024-03-13T12:56:56.569Z,2.83
2024-03-13T13:01:03.399Z,2.63
2024-03-13T13:05:06.858Z,3.15
2024-03-13T13:09:13.951Z,4.38
2024-03-13T13:13:15.492Z,2.80
2024-03-13T13:17:16.975Z,2.88
2024-03-13T13:21:18.439Z,2.38
2024-03-13T13:25:22.161Z,2.53
2024-03-13T13:29:24.511Z,2.53
2024-03-13T13:33:26.602Z,3.22
2024-03-13T13:37:28.553Z,2.53
2024-03-13T13:41:30.884Z,3.35
2024-03-13T13:45:33.219Z,2.05
2024-03-13T13:49:41.445Z,3.10
2024-03-13T13:53:43.020Z,2.50
2024-03-13T13:57:50.999Z,2.17
2024-03-13T14:01:56.479Z,2.42
2024-03-13T14:05:58.195Z,2.72
2024-03-13T14:10:00.187Z,2.55
2024-03-13T14:14:02.948Z,2.95
2024-03-13T14:18:11.202Z,2.70
2024-03-13T14:22:13.219Z,2.80
2024-03-13T14:26:15.012Z,2.33
2024-03-13T14:30:18.600Z,2.13
2024-03-13T14:34:21.672Z,3.40
2024-03-13T14:38:23.183Z,2.60
2024-03-13T14:46:33.494Z,2.30
2024-03-13T14:50:35.290Z,2.15
2024-03-13T14:54:36.800Z,2.00
2024-03-13T14:58:39.708Z,1.92
2024-03-13T15:02:42.286Z,2.10
2024-03-13T15:06:43.851Z,2.42
2024-03-13T15:10:45.475Z,1.83
2024-03-13T15:14:47.065Z,0.95
2024-03-13T15:18:49.253Z,1.48
2024-03-13T15:22:50.828Z,1.40
2024-03-13T15:26:52.653Z,1.20
2024-03-13T15:30:56.832Z,1.30
2024-03-13T15:34:58.693Z,1.02
2024-03-13T15:39:00.219Z,1.88
2024-03-13T15:43:03.968Z,1.20
2024-03-13T15:47:06.366Z,1.00
2024-03-13T15:51:08.057Z,1.23
2024-03-13T15:55:09.680Z,0.90
2024-03-13T15:59:13.882Z,0.80
2024-03-13T16:03:15.439Z,1.02
2024-03-13T16:07:17.290Z,1.00
2024-03-13T16:11:18.994Z,0.63
2024-03-13T16:15:20.860Z,1.08
2024-03-13T16:19:22.577Z,1.05
2024-03-13T16:23:24.426Z,1.15
2024-03-13T16:27:26.055Z,1.00
2024-03-13T16:31:27.720Z,1.00
2024-03-13T16:35:29.411Z,1.25
2024-03-13T16:39:31.083Z,1.33
2024-03-13T16:43:33.396Z,1.23
2024-03-13T16:47:35.549Z,0.70
2024-03-13T16:51:37.518Z,0.82
2024-03-13T16:55:39.038Z,0.90
2024-03-13T16:59:40.563Z,0.88
2024-03-13T17:03:43.503Z,1.20
2024-03-13T17:07:45.327Z,0.98
2024-03-13T17:11:47.112Z,0.85
2024-03-13T17:15:48.636Z,1.00
2024-03-13T17:19:52.328Z,0.80
2024-03-13T17:23:54.238Z,0.80
2024-03-13T17:27:55.800Z,0.90
2024-03-13T17:31:58.344Z,0.88
2024-03-13T17:35:59.958Z,0.77
2024-03-13T17:40:01.926Z,1.02
2024-03-13T17:44:05.295Z,0.98
2024-03-13T17:48:10.364Z,1.30
2024-03-13T17:52:12.282Z,0.88
2024-03-13T17:56:13.986Z,1.30
2024-03-13T18:00:17.200Z,1.30
2024-03-13T18:04:20.039Z,1.20
2024-03-13T18:08:21.576Z,1.25
2024-03-13T18:12:24.633Z,1.52
2024-03-13T18:16:26.772Z,1.35
2024-03-13T18:20:31.056Z,1.60
2024-03-13T18:24:32.613Z,1.40
2024-03-13T18:28:34.228Z,1.38
2024-03-13T18:32:44.082Z,1.90
2024-03-13T18:36:48.488Z,1.10
2024-03-13T18:40:50.032Z,1.33
2024-03-13T18:44:51.742Z,1.10
2024-03-13T18:48:53.296Z,1.55
2024-03-13T18:52:55.022Z,1.25
2024-03-13T18:56:56.584Z,1.30
2024-03-13T19:00:58.080Z,1.20
2024-03-13T19:05:03.207Z,1.08
2024-03-13T19:09:11.969Z,1.25
2024-03-13T19:13:13.578Z,1.10
2024-03-13T19:17:15.117Z,1.27
2024-03-13T19:21:16.908Z,1.10
2024-03-13T19:25:18.665Z,0.90
2024-03-13T19:29:20.139Z,1.40
2024-03-13T19:33:21.909Z,1.10
2024-03-13T19:37:23.473Z,1.30
2024-03-13T19:41:25.398Z,1.40
2024-03-13T19:45:27.419Z,0.90
2024-03-13T19:49:28.981Z,1.13
2024-03-13T19:53:30.489Z,1.30
2024-03-13T19:57:31.966Z,0.93
2024-03-13T20:01:34.380Z,1.17
2024-03-13T20:05:36.507Z,1.23
2024-03-13T20:09:39.607Z,1.30
2024-03-13T20:13:42.940Z,1.23
2024-03-13T20:17:45.065Z,1.10
2024-03-13T20:21:47.706Z,1.70
2024-03-13T20:25:49.292Z,1.40
2024-03-13T20:29:50.874Z,1.42
2024-03-13T20:33:52.685Z,1.20
2024-03-13T20:37:54.930Z,1.20
2024-03-13T20:41:56.523Z,1.30
2024-03-13T20:45:58.991Z,1.45
2024-03-13T20:50:01.906Z,1.73
2024-03-13T20:54:06.127Z,1.92
2024-03-13T20:58:08.644Z,1.33
2024-03-13T21:02:10.305Z,1.05
2024-03-13T21:06:11.935Z,1.05
2024-03-13T21:10:15.257Z,1.52
2024-03-13T21:14:17.777Z,1.15
2024-03-13T21:18:21.120Z,0.90
2024-03-13T21:22:22.648Z,1.27
2024-03-13T21:26:24.260Z,2.08
2024-03-13T21:30:25.809Z,1.17
2024-03-13T21:34:32.468Z,1.20
2024-03-13T21:38:37.835Z,1.30
2024-03-13T21:42:40.375Z,1.17
2024-03-13T21:46:41.846Z,1.25
2024-03-13T21:50:43.980Z,1.50
2024-03-13T21:54:45.643Z,1.50
2024-03-13T21:58:47.102Z,1.40
2024-03-13T22:02:48.869Z,1.20
2024-03-13T22:06:53.170Z,1.45
2024-03-13T22:10:54.990Z,1.70
2024-03-13T22:14:56.527Z,1.65
2024-03-13T22:19:00.811Z,1.40
2024-03-13T22:23:03.826Z,1.30
2024-03-13T22:27:05.361Z,1.77
2024-03-13T22:31:07.258Z,1.67
2024-03-13T22:35:08.875Z,1.45
2024-03-13T22:39:11.934Z,1.50
2024-03-13T22:43:13.427Z,1.95
2024-03-13T22:47:16.095Z,1.80
2024-03-13T22:51:17.774Z,1.40
2024-03-13T22:55:19.319Z,1.48
2024-03-13T22:59:21.037Z,1.42
2024-03-13T23:03:22.621Z,1.40
2024-03-13T23:07:27.302Z,1.70
2024-03-13T23:11:28.884Z,1.77
2024-03-13T23:15:31.118Z,1.73
2024-03-13T23:19:32.691Z,1.85
2024-03-13T23:23:34.195Z,2.00
2024-03-13T23:27:37.726Z,1.65
2024-03-13T23:31:43.668Z,1.60
2024-03-13T23:35:45.254Z,1.75
2024-03-13T23:39:46.719Z,1.50
2024-03-13T23:43:48.208Z,1.40
2024-03-13T23:47:49.782Z,1.63
2024-03-13T23:51:51.286Z,1.30
2024-03-13T23:55:52.961Z,1.90
2024-03-13T23:59:54.490Z,1.85
